Time;durP1;ratioP1;P1;durP2;ratioP2;P2;SDS_P1;SDS_P2;PMS_P1;PMS_P2;Temp;Humidity;BMP_temperature;BMP_pressure;BME280_temperature;BME280_humidity;BME280_pressure;Samples;Min_cycle;Max_cycle;Signal;HPM_P1;HPM_P2
2022/05/01 00:01:43;;;;;;;14.95;10.25;;;;;;;7.09;90.77;99192.34;4221441;27;20510;-73
2022/05/01 00:03:44;;;;;;;17.52;11.15;;;;;;;7.04;91.17;99201.63;4221921;27;20035;-73
2022/05/01 00:05:45;;;;;;;16.63;10.90;;;;;;;7.03;90.36;99187.06;4222207;27;20382;-73
2022/05/01 00:07:45;;;;;;;17.13;10.77;;;;;;;7.05;90.45;99189.47;4220988;28;20531;-73
2022/05/01 00:09:45;;;;;;;13.45;10.60;;;;;;;7.04;89.72;99188.66;4221731;28;20177;-72
2022/05/01 00:11:46;;;;;;;17.23;10.68;;;;;;;7.07;90.44;99180.88;4222121;28;20422;-73
2022/05/01 00:13:47;;;;;;;14.40;10.52;;;;;;;6.95;91.68;99178.84;4221573;27;20079;-73
2022/05/01 00:15:47;;;;;;;16.85;10.70;;;;;;;6.91;91.63;99183.44;4221595;27;20879;-73
2022/05/01 00:17:48;;;;;;;13.65;10.63;;;;;;;6.86;91.48;99178.94;4220746;28;20048;-73
2022/05/01 00:19:48;;;;;;;13.85;9.88;;;;;;;6.84;90.13;99172.97;4221659;27;20039;-73
2022/05/01 00:21:49;;;;;;;16.08;10.70;;;;;;;6.83;89.73;99181.56;4221411;28;20422;-73
2022/05/01 00:23:49;;;;;;;17.73;11.45;;;;;;;6.81;89.99;99181.09;4227331;27;20397;-73
2022/05/01 00:25:49;;;;;;;16.15;11.13;;;;;;;6.73;91.59;99185.53;4221608;27;20059;-73
2022/05/01 00:27:50;;;;;;;15.25;10.18;;;;;;;6.66;91.34;99177.81;4219927;28;20062;-73
2022/05/01 00:29:50;;;;;;;13.70;10.40;;;;;;;6.60;92.21;99176.38;4221409;27;20032;-73
2022/05/01 00:31:50;;;;;;;14.20;10.13;;;;;;;6.54;93.46;99183.25;4221384;27;20047;-73
2022/05/01 00:36:28;;;;;;;14.13;10.88;;;;;;;6.49;94.57;99180.69;4227779;27;20533;-73
2022/05/01 00:38:28;;;;;;;17.98;12.30;;;;;;;6.45;96.23;99180.56;4227618;27;20528;-73
2022/05/01 00:40:28;;;;;;;16.92;11.23;;;;;;;6.47;96.26;99183.75;4220917;27;20067;-73
2022/05/01 00:42:29;;;;;;;15.02;11.00;;;;;;;6.48;96.40;99179.88;4222611;27;20623;-73
2022/05/01 00:44:29;;;;;;;16.52;11.40;;;;;;;6.45;97.24;99180.56;4220264;28;20126;-73
2022/05/01 00:46:35;;;;;;;15.93;11.35;;;;;;;6.48;97.10;99182.63;4220508;28;20047;-73
2022/05/01 00:48:35;;;;;;;19.08;12.05;;;;;;;6.42;98.03;99183.16;4220659;28;20045;-73
2022/05/01 00:50:36;;;;;;;17.85;12.10;;;;;;;6.41;97.17;99181.53;4221319;28;20160;-73
2022/05/01 00:52:36;;;;;;;22.25;12.30;;;;;;;6.42;97.39;99177.66;4223535;27;20039;-73
2022/05/01 00:54:39;;;;;;;16.77;11.88;;;;;;;6.38;97.54;99172.03;4221437;27;20311;-73
2022/05/01 00:56:42;;;;;;;18.38;12.05;;;;;;;6.37;97.58;99178.66;4220227;27;20127;-73
2022/05/01 00:58:43;;;;;;;18.23;11.55;;;;;;;6.36;97.55;99178.97;4221342;27;20429;-73
2022/05/01 01:00:45;;;;;;;16.50;11.70;;;;;;;6.28;97.73;99177.09;4225187;27;20039;-73
2022/05/01 01:02:47;;;;;;;16.40;10.82;;;;;;;6.22;97.85;99167.44;4226746;27;20035;-73
2022/05/01 01:04:47;;;;;;;15.60;10.60;;;;;;;6.19;98.24;99175.19;4225964;27;20092;-73
2022/05/01 01:06:48;;;;;;;17.85;11.02;;;;;;;6.18;97.67;99168.09;4219888;28;20044;-73
2022/05/01 01:08:49;;;;;;;18.00;11.50;;;;;;;6.20;96.74;99171.31;4221225;27;20054;-73
2022/05/01 01:10:49;;;;;;;16.15;10.95;;;;;;;6.24;95.76;99167.91;4223465;27;20572;-72
2022/05/01 01:12:55;;;;;;;17.52;11.07;;;;;;;6.27;95.50;99173.53;4220828;28;20383;-73
2022/05/01 01:14:55;;;;;;;16.50;10.95;;;;;;;6.26;96.66;99173.88;4220902;27;20119;-73
2022/05/01 01:16:57;;;;;;;15.73;11.25;;;;;;;6.29;96.67;99175.94;4220081;27;20097;-73
2022/05/01 01:18:58;;;;;;;18.25;12.35;;;;;;;6.25;97.05;99167.56;4220409;28;20086;-73
2022/05/01 01:20:58;;;;;;;16.45;11.02;;;;;;;6.26;96.64;99171.91;4220519;28;20044;-73
2022/05/01 01:23:00;;;;;;;16.25;10.88;;;;;;;6.30;94.66;99178.38;4223880;27;20039;-73
2022/05/01 01:25:01;;;;;;;15.70;10.85;;;;;;;6.29;94.37;99163.03;4222891;27;20130;-73
2022/05/01 01:27:02;;;;;;;19.40;11.60;;;;;;;6.31;95.01;99168.19;4219874;27;20157;-73
2022/05/01 01:31:40;;;;;;;15.57;10.90;;;;;;;6.31;94.07;99163.50;4232403;27;20462;-73
2022/05/01 01:31:42;;;;;;;15.60;10.32;;;;;;;6.31;93.48;99162.69;4225145;27;20046;-73
2022/05/01 01:33:43;;;;;;;16.23;10.65;;;;;;;6.27;93.59;99167.22;4226185;27;20039;-72
2022/05/01 01:35:45;;;;;;;14.77;11.35;;;;;;;6.27;93.00;99168.03;4220022;27;20484;-72
2022/05/01 01:37:46;;;;;;;16.02;10.18;;;;;;;6.23;94.01;99166.31;4223976;27;20054;-73
2022/05/01 01:39:46;;;;;;;14.57;10.40;;;;;;;6.18;93.01;99164.53;4219964;27;20036;-72
2022/05/01 01:41:48;;;;;;;17.85;11.02;;;;;;;6.12;94.55;99172.19;4219744;27;20039;-73
2022/05/01 01:43:49;;;;;;;16.65;10.70;;;;;;;6.07;95.06;99166.06;4220091;28;20086;-73
2022/05/01 01:45:49;;;;;;;15.60;10.23;;;;;;;6.07;94.31;99166.06;4219731;28;20036;-73
2022/05/01 01:47:50;;;;;;;13.85;9.68;;;;;;;6.03;93.18;99160.41;4224385;27;20394;-73
2022/05/01 01:49:50;;;;;;;13.77;10.30;;;;;;;6.01;93.35;99162.69;4220197;28;20093;-73
2022/05/01 01:51:50;;;;;;;13.40;10.25;;;;;;;5.89;94.64;99157.06;4220181;28;20052;-73
2022/05/01 01:53:52;;;;;;;15.32;10.60;;;;;;;5.83;96.31;99166.63;4219724;28;20320;-72
2022/05/01 01:55:53;;;;;;;14.03;9.73;;;;;;;5.76;96.80;99169.06;4223937;27;20036;-73
2022/05/01 01:57:53;;;;;;;18.73;11.40;;;;;;;5.70;97.93;99164.88;4219176;27;20434;-73
2022/05/01 01:59:54;;;;;;;17.00;10.98;;;;;;;5.63;98.75;99160.75;4220255;28;20135;-73
2022/05/01 02:01:54;;;;;;;16.20;11.38;;;;;;;5.57;99.86;99169.47;4220127;28;20156;-73
2022/05/01 02:03:54;;;;;;;15.73;11.18;;;;;;;5.54;99.60;99167.38;4220260;28;20051;-73
2022/05/01 02:05:55;;;;;;;15.20;10.40;;;;;;;5.52;99.85;99158.66;4220532;28;20096;-73
2022/05/01 02:07:56;;;;;;;15.55;10.35;;;;;;;5.49;97.47;99151.91;4219133;28;20040;-73
2022/05/01 02:09:57;;;;;;;17.42;10.68;;;;;;;5.47;98.23;99161.59;4223341;27;20053;-73
2022/05/01 02:11:57;;;;;;;14.30;9.77;;;;;;;5.46;97.85;99158.06;4220087;28;20158;-73
2022/05/01 02:13:58;;;;;;;18.83;11.00;;;;;;;5.51;97.13;99160.59;4219423;28;20130;-73
2022/05/01 02:15:58;;;;;;;13.77;9.88;;;;;;;5.53;95.50;99154.78;4226398;27;20511;-72
2022/05/01 02:18:00;;;;;;;15.13;10.15;;;;;;;5.51;95.89;99159.78;4219086;28;20490;-73
2022/05/01 02:20:00;;;;;;;16.30;11.55;;;;;;;5.44;98.72;99162.22;4226166;27;20054;-73
2022/05/01 02:22:01;;;;;;;20.23;12.45;;;;;;;5.36;100.00;99158.38;4219441;27;20387;-73
2022/05/01 02:24:05;;;;;;;21.30;11.90;;;;;;;5.28;100.00;99150.97;4219619;28;20063;-73
2022/05/01 02:26:05;;;;;;;18.23;11.60;;;;;;;5.15;100.00;99143.75;4219029;28;20065;-73
2022/05/01 02:28:06;;;;;;;15.70;11.32;;;;;;;5.16;100.00;99145.38;4219176;28;20108;-73
2022/05/01 02:30:08;;;;;;;21.50;10.88;;;;;;;5.11;100.00;99151.00;4224447;28;20107;-73
2022/05/01 02:32:08;;;;;;;19.92;11.75;;;;;;;5.06;100.00;99152.81;4227442;27;20051;-73
2022/05/01 02:34:10;;;;;;;14.40;11.15;;;;;;;5.00;100.00;99150.56;4219939;27;20910;-73
2022/05/01 02:36:12;;;;;;;16.30;11.27;;;;;;;5.01;100.00;99158.44;4219754;28;20031;-73
2022/05/01 02:38:12;;;;;;;19.40;11.55;;;;;;;4.98;100.00;99156.38;4218844;27;20028;-73
2022/05/01 02:40:13;;;;;;;16.45;11.23;;;;;;;4.98;100.00;99150.88;4219351;28;20389;-73
2022/05/01 02:42:13;;;;;;;16.15;10.95;;;;;;;5.01;100.00;99157.66;4224052;27;20035;-72
2022/05/01 02:44:13;;;;;;;15.77;9.68;;;;;;;4.95;100.00;99153.47;4219510;28;20460;-73
2022/05/01 02:46:15;;;;;;;18.02;11.93;;;;;;;4.88;100.00;99150.38;4220019;28;20122;-73
2022/05/01 02:48:15;;;;;;;17.20;11.33;;;;;;;4.90;100.00;99154.44;4224299;28;20047;-72
2022/05/01 02:50:16;;;;;;;15.65;10.85;;;;;;;4.85;100.00;99140.88;4230049;27;20383;-72
2022/05/01 02:52:16;;;;;;;16.38;10.77;;;;;;;4.81;100.00;99150.91;4221741;27;20212;-73
2022/05/01 02:54:16;;;;;;;14.45;10.50;;;;;;;4.72;100.00;99152.84;4222075;28;20055;-73
2022/05/01 02:56:17;;;;;;;17.83;11.43;;;;;;;4.70;100.00;99150.41;4222564;27;20514;-73
2022/05/01 02:58:17;;;;;;;14.23;10.18;;;;;;;4.64;100.00;99148.16;4222382;27;20055;-73
2022/05/01 03:00:17;;;;;;;19.48;11.27;;;;;;;4.64;100.00;99157.19;4225537;27;20035;-73
2022/05/01 03:02:18;;;;;;;20.95;11.48;;;;;;;4.61;100.00;99152.34;4223557;27;20123;-72
2022/05/01 03:04:18;;;;;;;15.90;11.32;;;;;;;4.62;100.00;99159.44;4222594;28;20024;-73
2022/05/01 03:06:18;;;;;;;15.80;10.88;;;;;;;4.60;100.00;99158.16;4222935;28;20070;-73
2022/05/01 03:08:20;;;;;;;18.27;11.07;;;;;;;4.53;100.00;99149.59;4222381;28;20028;-72
2022/05/01 03:10:20;;;;;;;19.10;12.18;;;;;;;4.47;100.00;99140.75;4222129;27;20027;-73
2022/05/01 03:12:21;;;;;;;13.02;9.73;;;;;;;4.48;100.00;99153.31;4225016;27;20503;-73
2022/05/01 03:14:21;;;;;;;17.38;11.10;;;;;;;4.48;100.00;99147.84;4226101;27;20088;-73
2022/05/01 03:16:21;;;;;;;15.52;11.05;;;;;;;4.44;100.00;99155.88;4222698;27;20108;-73
2022/05/01 03:22:59;;;;;;;15.60;10.73;;;;;;;4.34;100.00;99139.75;4223642;27;20050;-72
2022/05/01 03:24:59;;;;;;;18.00;11.05;;;;;;;4.31;100.00;99136.88;4226171;27;20031;-73
2022/05/01 03:27:00;;;;;;;15.10;10.57;;;;;;;4.30;100.00;99138.78;4229119;27;20043;-72
2022/05/01 03:29:00;;;;;;;16.05;10.30;;;;;;;4.29;100.00;99139.91;4231897;27;20564;-72
2022/05/01 03:31:01;;;;;;;17.13;11.07;;;;;;;4.29;100.00;99145.38;4225892;27;20043;-72
2022/05/01 03:33:05;;;;;;;15.95;10.43;;;;;;;4.28;100.00;99151.19;4221411;28;20039;-73
2022/05/01 03:35:07;;;;;;;16.38;10.60;;;;;;;4.24;100.00;99145.56;4222746;27;20039;-72
2022/05/01 03:37:07;;;;;;;16.83;11.10;;;;;;;4.27;100.00;99147.63;4221773;27;20065;-73
2022/05/01 03:39:08;;;;;;;14.18;9.82;;;;;;;4.25;100.00;99149.91;4224263;27;20081;-73
2022/05/01 03:41:12;;;;;;;15.18;9.63;;;;;;;4.25;100.00;99149.91;4224063;27;20054;-73
2022/05/01 03:43:16;;;;;;;17.17;10.93;;;;;;;4.19;100.00;99146.50;4225153;27;20339;-73
2022/05/01 03:45:16;;;;;;;18.38;10.52;;;;;;;4.21;100.00;99146.97;4224459;27;20047;-73
2022/05/01 03:47:17;;;;;;;18.67;11.50;;;;;;;4.22;100.00;99156.03;4221348;27;20040;-73
2022/05/01 03:49:17;;;;;;;15.20;10.70;;;;;;;4.23;100.00;99150.22;4221805;27;20044;-72
2022/05/01 03:51:18;;;;;;;18.13;11.05;;;;;;;4.20;100.00;99147.31;4222621;27;20627;-72
2022/05/01 03:53:19;;;;;;;14.90;10.50;;;;;;;4.22;100.00;99159.56;4222003;28;20047;-72
2022/05/01 03:55:19;;;;;;;15.05;9.90;;;;;;;4.22;100.00;99156.84;4221858;28;20428;-73
2022/05/01 03:57:20;;;;;;;14.95;10.95;;;;;;;4.24;100.00;99153.78;4221252;28;20181;-73
2022/05/01 03:59:20;;;;;;;17.83;11.18;;;;;;;4.24;100.00;99151.03;4222126;27;20042;-73
2022/05/01 04:01:20;;;;;;;16.90;11.20;;;;;;;4.22;100.00;99154.09;4221859;27;20483;-73
2022/05/01 04:03:21;;;;;;;18.55;10.68;;;;;;;4.25;100.00;99155.38;4221202;28;20081;-72
2022/05/01 04:05:21;;;;;;;17.25;11.05;;;;;;;4.28;100.00;99156.66;4222266;27;20467;-73
2022/05/01 04:07:21;;;;;;;15.70;10.75;;;;;;;4.30;100.00;99151.66;4227787;27;20036;-73
2022/05/01 04:09:24;;;;;;;17.80;10.98;;;;;;;4.35;100.00;99159.75;4226692;27;20454;-73
2022/05/01 04:11:25;;;;;;;15.85;10.48;;;;;;;4.40;100.00;99154.13;4226658;27;20447;-73
2022/05/01 04:13:25;;;;;;;14.07;10.20;;;;;;;4.45;100.00;99164.91;4221938;28;20372;-72
2022/05/01 04:15:26;;;;;;;19.00;10.60;;;;;;;4.47;100.00;99158.00;4221760;28;20294;-72
2022/05/01 04:17:27;;;;;;;19.02;11.32;;;;;;;4.51;100.00;99158.94;4225300;27;20046;-72
2022/05/01 04:19:30;;;;;;;18.50;11.27;;;;;;;4.56;100.00;99159.94;4222119;27;20047;-72
2022/05/01 04:21:31;;;;;;;20.58;11.30;;;;;;;4.54;100.00;99153.94;4220048;28;20052;-72
2022/05/01 04:23:32;;;;;;;14.00;10.27;;;;;;;4.54;100.00;99153.94;4221206;28;20092;-72
2022/05/01 04:25:34;;;;;;;16.60;10.18;;;;;;;4.56;100.00;99149.78;4221530;27;20050;-72
2022/05/01 04:27:34;;;;;;;15.50;11.00;;;;;;;4.58;100.00;99147.50;4221908;27;20040;-72
2022/05/01 04:29:38;;;;;;;16.40;10.35;;;;;;;4.64;100.00;99145.44;4226852;27;20082;-72
2022/05/01 04:31:39;;;;;;;17.88;11.57;;;;;;;4.70;100.00;99152.34;4221591;27;20414;-72
2022/05/01 04:33:39;;;;;;;17.92;11.13;;;;;;;4.70;100.00;99144.13;4226633;27;20048;-72
2022/05/01 04:35:45;;;;;;;16.30;10.77;;;;;;;4.79;100.00;99150.41;4231586;27;20124;-72
2022/05/01 04:37:45;;;;;;;15.23;11.18;;;;;;;4.77;100.00;99150.72;4219615;28;20048;-72
2022/05/01 04:39:46;;;;;;;16.60;11.07;;;;;;;4.81;100.00;99144.63;4221262;27;20084;-72
2022/05/01 04:41:46;;;;;;;14.45;10.82;;;;;;;4.87;100.00;99146.03;4220812;27;20084;-72
2022/05/01 04:43:47;;;;;;;15.85;11.13;;;;;;;4.97;100.00;99148.47;4221709;27;20047;-72
2022/05/01 04:45:52;;;;;;;14.65;10.60;;;;;;;5.03;100.00;99158.94;4221023;28;20075;-72
2022/05/01 04:47:52;;;;;;;15.43;10.30;;;;;;;5.06;100.00;99162.97;4220124;27;20054;-72
2022/05/01 04:49:53;;;;;;;16.73;10.98;;;;;;;5.07;100.00;99159.09;4221051;28;20052;-73
2022/05/01 04:51:53;;;;;;;16.42;10.68;;;;;;;5.09;100.00;99167.81;4226380;27;20058;-72
2022/05/01 04:53:53;;;;;;;18.63;11.65;;;;;;;5.10;100.00;99163.13;4220433;27;20101;-73
2022/05/01 04:55:53;;;;;;;18.50;11.60;;;;;;;5.10;100.00;99172.16;4220997;27;20122;-72
2022/05/01 04:57:54;;;;;;;16.75;11.23;;;;;;;5.15;100.00;99169.25;4220902;28;20118;-72
2022/05/01 04:59:55;;;;;;;19.17;11.23;;;;;;;5.19;100.00;99166.66;4221009;27;20447;-73
2022/05/01 05:01:55;;;;;;;15.80;11.05;;;;;;;5.25;100.00;99181.81;4220703;27;20078;-72
2022/05/01 05:03:57;;;;;;;17.73;11.18;;;;;;;5.30;100.00;99173.44;4220873;28;20149;-73
2022/05/01 05:05:58;;;;;;;17.13;11.73;;;;;;;5.36;100.00;99175.66;4221191;28;20444;-73
2022/05/01 05:09:53;;;;;;;16.33;10.93;;;;;;;5.42;100.00;99178.22;4219471;27;20039;-73
2022/05/01 05:10:19;;;;;;;18.05;11.88;;;;;;;5.44;100.00;99175.97;4221655;27;20051;-73
2022/05/01 05:12:20;;;;;;;17.45;11.10;;;;;;;5.46;100.00;99171.78;4226751;27;20190;-73
2022/05/01 05:14:20;;;;;;;15.50;10.82;;;;;;;5.51;100.00;99182.56;4220695;27;20043;-73
2022/05/01 05:16:20;;;;;;;17.15;11.05;;;;;;;5.57;100.00;99191.44;4220082;28;20135;-72
2022/05/01 05:18:21;;;;;;;16.65;10.52;;;;;;;5.62;100.00;99183.00;4220319;27;20040;-72
2022/05/01 05:20:21;;;;;;;16.27;11.23;;;;;;;5.70;100.00;99193.16;4220562;27;20387;-72
2022/05/01 05:22:22;;;;;;;15.75;11.57;;;;;;;5.76;100.00;99189.09;4220129;28;20088;-73
2022/05/01 05:24:22;;;;;;;17.15;11.77;;;;;;;5.82;100.00;99189.72;4220180;28;20089;-72
2022/05/01 05:26:22;;;;;;;18.55;12.82;;;;;;;5.86;100.00;99188.72;4225676;27;20032;-72
2022/05/01 05:28:23;;;;;;;18.05;12.75;;;;;;;5.93;100.00;99190.19;4223755;27;20123;-73
2022/05/01 05:30:23;;;;;;;15.32;11.52;;;;;;;5.97;100.00;99189.22;4161791;27;20496;-72
2022/05/01 05:32:25;;;;;;;16.45;12.32;;;;;;;6.03;100.00;99201.63;4220570;27;20214;-72
2022/05/01 05:34:26;;;;;;;15.80;11.32;;;;;;;6.04;100.00;99199.66;4221883;27;20134;-73
2022/05/01 05:36:27;;;;;;;16.75;11.48;;;;;;;6.07;100.00;99193.53;4220170;28;20435;-72
2022/05/01 05:38:27;;;;;;;16.88;11.35;;;;;;;6.11;100.00;99197.22;4222623;27;20329;-72
2022/05/01 05:40:27;;;;;;;16.52;10.70;;;;;;;6.16;100.00;99194.28;4218886;28;20078;-73
2022/05/01 05:42:27;;;;;;;15.15;9.75;;;;;;;6.23;99.41;99194.59;4222934;27;20062;-73
2022/05/01 05:44:28;;;;;;;16.38;10.77;;;;;;;6.30;99.64;99194.06;4226101;27;20479;-73
2022/05/01 05:46:28;;;;;;;17.67;11.18;;;;;;;6.36;100.00;99199.00;4219960;28;20039;-73
2022/05/01 05:48:28;;;;;;;17.20;11.25;;;;;;;6.41;100.00;99190.59;4221063;27;20128;-73
2022/05/01 05:50:29;;;;;;;14.93;10.63;;;;;;;6.47;100.00;99197.50;4219553;28;20297;-72
2022/05/01 05:52:29;;;;;;;14.85;10.32;;;;;;;6.54;99.82;99204.41;4219987;28;20549;-73
2022/05/01 05:54:30;;;;;;;14.93;10.65;;;;;;;6.60;99.26;99203.88;4223931;27;20040;-73
2022/05/01 05:56:30;;;;;;;16.35;11.70;;;;;;;6.66;100.00;99204.50;4219665;27;20482;-73
2022/05/01 05:58:31;;;;;;;16.73;11.00;;;;;;;6.71;100.00;99204.31;4219706;28;20054;-73
2022/05/01 06:00:31;;;;;;;15.20;9.98;;;;;;;6.78;100.00;99209.25;4219488;28;20124;-73
2022/05/01 06:02:31;;;;;;;16.42;10.38;;;;;;;6.86;100.00;99208.38;4224930;27;20093;-72
2022/05/01 06:04:32;;;;;;;18.17;10.98;;;;;;;6.93;100.00;99214.16;4225300;27;20810;-72
2022/05/01 06:06:33;;;;;;;15.43;10.75;;;;;;;7.01;100.00;99202.28;4219226;28;20549;-72
2022/05/01 06:08:38;;;;;;;16.15;10.93;;;;;;;7.09;100.00;99223.41;4220715;28;20052;-73
2022/05/01 06:10:41;;;;;;;14.95;10.82;;;;;;;7.13;100.00;99215.31;4225990;27;20044;-73
2022/05/01 06:12:42;;;;;;;16.17;11.07;;;;;;;7.17;99.95;99211.53;4219850;28;20344;-73
2022/05/01 06:14:44;;;;;;;16.70;11.15;;;;;;;7.26;99.87;99219.69;4219761;27;20040;-73
2022/05/01 06:16:45;;;;;;;18.52;11.50;;;;;;;7.33;100.00;99219.97;4228774;27;20090;-72
2022/05/01 06:18:45;;;;;;;14.50;10.57;;;;;;;7.40;99.88;99220.22;4227133;27;20039;-73
2022/05/01 06:20:46;;;;;;;15.45;10.57;;;;;;;7.48;99.29;99215.78;4224992;27;20130;-73
2022/05/01 06:22:50;;;;;;;14.82;10.15;;;;;;;7.53;99.08;99210.03;4219710;28;20035;-73
2022/05/01 06:24:50;;;;;;;16.20;9.85;;;;;;;7.60;97.92;99215.78;4218797;28;20055;-73
2022/05/01 06:26:51;;;;;;;13.43;10.05;;;;;;;7.68;97.40;99219.59;4218994;28;20066;-73
2022/05/01 06:28:51;;;;;;;15.63;11.10;;;;;;;7.77;96.99;99223.06;4220482;28;20031;-73
2022/05/01 06:30:52;;;;;;;14.85;10.35;;;;;;;7.80;95.53;99217.69;4220196;28;20055;-73
2022/05/01 06:32:53;;;;;;;15.23;10.55;;;;;;;7.89;94.53;99221.16;4218841;28;20047;-73
2022/05/01 06:34:54;;;;;;;14.43;9.75;;;;;;;7.98;95.03;99223.00;4219172;28;20183;-72
2022/05/01 06:36:54;;;;;;;12.65;9.60;;;;;;;8.06;94.58;99230.34;4219185;27;20465;-73
2022/05/01 06:38:54;;;;;;;13.80;8.48;;;;;;;8.14;91.15;99232.19;4219808;28;20532;-72
2022/05/01 06:40:55;;;;;;;10.35;8.73;;;;;;;8.17;89.02;99232.31;4219265;28;20051;-73
2022/05/01 06:42:55;;;;;;;14.98;9.02;;;;;;;8.25;87.40;99227.84;4219512;28;20039;-73
2022/05/01 06:44:56;;;;;;;13.77;8.32;;;;;;;8.26;83.82;99221.16;4221956;28;20031;-72
2022/05/01 06:46:56;;;;;;;12.57;7.68;;;;;;;8.32;84.32;99219.00;4218920;28;20036;-72
2022/05/01 06:48:57;;;;;;;9.90;6.85;;;;;;;8.34;82.55;99220.25;4220324;27;20043;-73
2022/05/01 06:50:57;;;;;;;8.75;6.63;;;;;;;8.39;82.46;99217.31;4222643;28;20104;-72
2022/05/01 06:52:57;;;;;;;13.20;8.48;;;;;;;8.45;82.24;99220.63;4227339;27;20088;-73
2022/05/01 06:54:59;;;;;;;12.38;8.15;;;;;;;8.51;81.95;99213.72;4228157;27;20064;-72
2022/05/01 06:56:59;;;;;;;10.00;7.38;;;;;;;8.53;81.57;99221.66;4218866;28;20581;-73
2022/05/01 06:59:00;;;;;;;12.38;7.63;;;;;;;8.57;82.28;99220.63;4220202;28;20071;-73
2022/05/01 07:01:01;;;;;;;11.75;8.25;;;;;;;8.59;81.47;99218.31;4219064;28;20047;-72
2022/05/01 07:03:02;;;;;;;8.85;6.53;;;;;;;8.63;81.49;99219.22;4225948;27;20042;-73
2022/05/01 07:05:02;;;;;;;10.93;6.82;;;;;;;8.66;81.55;99215.78;4219815;28;20436;-73
2022/05/01 07:07:03;;;;;;;11.13;7.88;;;;;;;8.72;82.33;99221.88;4217949;28;20069;-73
2022/05/01 07:09:03;;;;;;;9.95;7.13;;;;;;;8.77;82.08;99221.63;4219410;28;20468;-73
2022/05/01 07:11:03;;;;;;;10.73;7.68;;;;;;;8.81;80.80;99225.28;4230448;27;20074;-72
2022/05/01 07:13:04;;;;;;;11.75;6.85;;;;;;;8.83;79.58;99217.47;4217923;28;20039;-72
2022/05/01 07:15:05;;;;;;;13.05;7.18;;;;;;;8.84;78.10;99215.50;4219319;28;20042;-72
2022/05/01 07:17:06;;;;;;;9.35;7.07;;;;;;;8.86;77.69;99218.75;4225143;27;20035;-72
2022/05/01 07:19:06;;;;;;;8.60;6.38;;;;;;;8.86;78.75;99211.25;4219229;28;20084;-73
2022/05/01 07:21:07;;;;;;;8.57;6.60;;;;;;;8.90;78.76;99209.41;4219088;28;20061;-73
2022/05/01 07:23:07;;;;;;;11.95;7.50;;;;;;;8.94;78.96;99215.84;4219550;28;20036;-73
2022/05/01 07:25:08;;;;;;;10.57;7.22;;;;;;;8.97;77.35;99217.91;4219286;28;20062;-73
2022/05/01 07:27:09;;;;;;;8.77;6.40;;;;;;;9.00;78.30;99219.94;4225046;27;20031;-73
2022/05/01 07:29:09;;;;;;;9.25;6.22;;;;;;;9.01;77.13;99220.75;4221437;27;20043;-73
2022/05/01 07:31:09;;;;;;;9.05;6.53;;;;;;;9.03;76.31;99212.13;4229349;27;20213;-72
2022/05/01 07:33:10;;;;;;;10.88;7.68;;;;;;;9.07;76.18;99221.31;4218153;28;20031;-73
2022/05/01 07:35:10;;;;;;;9.80;7.05;;;;;;;9.08;75.27;99215.44;4222406;28;20093;-73
2022/05/01 07:37:13;;;;;;;8.73;6.47;;;;;;;9.17;75.54;99218.06;4221770;27;20487;-73
2022/05/01 07:39:13;;;;;;;12.02;6.97;;;;;;;9.21;76.18;99221.72;4222479;27;20046;-73
2022/05/01 07:41:19;;;;;;;13.88;7.38;;;;;;;9.27;75.98;99212.06;4223552;27;20028;-73
2022/05/01 07:43:19;;;;;;;12.70;6.60;;;;;;;9.28;75.04;99208.13;4222193;28;20046;-73
2022/05/01 07:45:20;;;;;;;8.70;6.28;;;;;;;9.40;74.87;99207.25;4221614;27;20056;-73
2022/05/01 07:47:20;;;;;;;10.38;8.27;;;;;;;9.46;75.56;99212.19;4204817;28;20372;-73
2022/05/01 07:49:24;;;;;;;9.48;6.57;;;;;;;9.45;72.59;99213.34;4221331;27;20472;-73
2022/05/01 07:51:25;;;;;;;11.40;7.45;;;;;;;9.51;73.73;99209.16;4222146;27;20050;-73
2022/05/01 07:53:27;;;;;;;10.88;6.60;;;;;;;9.53;74.94;99198.56;4223674;27;20421;-73
2022/05/01 07:55:27;;;;;;;10.75;6.40;;;;;;;9.61;75.01;99207.06;4226881;27;20048;-72
2022/05/01 07:57:27;;;;;;;10.60;6.32;;;;;;;9.70;74.16;99205.72;4226222;27;20040;-73
2022/05/01 07:59:28;;;;;;;8.55;5.88;;;;;;;9.78;73.81;99207.53;4222211;27;20055;-73
2022/05/01 08:01:28;;;;;;;7.55;5.97;;;;;;;9.95;74.04;99202.81;4227924;27;20039;-73
2022/05/01 08:05:53;;;;;;;7.38;5.53;;;;;;;10.20;73.45;99209.75;4191991;28;20050;-73
2022/05/01 08:07:53;;;;;;;8.77;5.47;;;;;;;10.19;68.81;99210.13;4219538;28;20035;-73
2022/05/01 08:09:54;;;;;;;7.60;5.35;;;;;;;10.24;68.62;99202.38;4220642;28;20632;-73
2022/05/01 08:11:55;;;;;;;8.70;5.93;;;;;;;10.35;70.25;99205.41;4227085;27;20044;-73
2022/05/01 08:13:56;;;;;;;9.77;6.60;;;;;;;10.32;70.43;99206.13;4221621;27;20050;-73
2022/05/01 08:15:56;;;;;;;9.15;5.60;;;;;;;10.28;70.48;99203.28;4219400;28;20578;-73
2022/05/01 08:22:34;;;;;;;8.45;5.43;;;;;;;10.07;67.56;99209.03;4209755;28;20039;-73
2022/05/01 08:24:35;;;;;;;8.23;5.90;;;;;;;10.11;68.35;99212.72;4221685;27;20047;-73
2022/05/01 08:26:36;;;;;;;7.47;5.85;;;;;;;10.10;69.22;99207.53;4221192;27;20044;-73
2022/05/01 08:28:38;;;;;;;10.00;6.25;;;;;;;10.03;69.99;99210.94;4221472;27;20047;-73
2022/05/01 08:30:39;;;;;;;8.50;5.47;;;;;;;10.06;71.37;99203.88;4224029;27;20430;-73
2022/05/01 08:32:39;;;;;;;10.05;5.97;;;;;;;10.16;71.46;99203.31;4220996;28;20035;-73
2022/05/01 08:34:40;;;;;;;10.40;6.40;;;;;;;10.19;69.40;99197.09;4223602;27;20043;-73
2022/05/01 08:36:41;;;;;;;8.10;5.85;;;;;;;10.32;69.69;99203.34;4220909;28;20139;-73
2022/05/01 08:38:42;;;;;;;11.27;6.10;;;;;;;10.23;68.49;99211.03;4225973;27;20039;-73
2022/05/01 08:40:46;;;;;;;7.93;6.10;;;;;;;10.31;68.54;99205.31;4221116;28;20044;-73
2022/05/01 08:42:49;;;;;;;8.10;6.68;;;;;;;10.27;69.87;99200.88;4221276;28;20054;-73
2022/05/01 08:44:51;;;;;;;10.00;6.22;;;;;;;10.30;69.26;99203.72;4223315;27;20119;-73
2022/05/01 08:47:14;;;;;;;9.20;6.18;;;;;;;10.34;69.45;99209.31;4220621;27;20042;-73
2022/05/01 08:49:17;;;;;;;;;;;;;;;10.43;72.71;99203.63;4226202;27;20035;-73
2022/05/01 08:51:19;;;;;;;9.35;5.88;;;;;;;10.43;70.55;99200.84;4221345;28;20356;-73
2022/05/01 08:53:22;;;;;;;11.95;7.90;;;;;;;10.39;72.81;99200.75;4220825;27;20093;-73
2022/05/01 08:55:23;;;;;;;10.73;7.82;;;;;;;10.46;72.88;99206.47;4221145;28;20452;-73
2022/05/01 08:57:24;;;;;;;9.25;6.68;;;;;;;10.59;73.54;99204.38;4220458;28;20123;-73
2022/05/01 08:59:25;;;;;;;9.10;6.50;;;;;;;10.79;70.75;99205.22;4220726;27;20078;-73
2022/05/01 09:01:28;;;;;;;13.05;6.70;;;;;;;10.97;68.44;99206.41;4220863;27;20576;-73
2022/05/01 09:03:29;;;;;;;9.23;6.13;;;;;;;11.02;68.07;99210.88;4220755;28;20043;-73
2022/05/01 09:05:31;;;;;;;8.07;5.65;;;;;;;10.89;66.42;99213.75;4226957;27;20038;-73
2022/05/01 09:07:31;;;;;;;8.43;6.15;;;;;;;10.94;65.63;99212.69;4220166;27;20465;-73
2022/05/01 09:09:32;;;;;;;11.18;6.38;;;;;;;10.95;66.53;99211.53;4226136;27;20079;-73
2022/05/01 09:13:53;;;;;;;13.15;9.52;;;;;;;10.92;67.83;99210.28;4220035;28;20450;-73
2022/05/01 09:16:10;;;;;;;17.70;11.20;;;;;;;10.95;68.09;99222.59;4220584;28;20445;-73
2022/05/01 09:18:14;;;;;;;8.63;6.47;;;;;;;11.01;65.11;99218.38;4221503;27;20063;-73
2022/05/01 09:20:14;;;;;;;9.77;6.18;;;;;;;11.02;64.79;99219.19;4223303;27;20023;-73
2022/05/01 09:22:16;;;;;;;9.40;6.00;;;;;;;10.92;65.25;99209.47;4220612;27;20028;-73
2022/05/01 09:24:27;;;;;;;10.57;7.20;;;;;;;10.91;67.34;99210.63;4220206;28;20035;-73
2022/05/01 09:26:36;;;;;;;10.98;6.13;;;;;;;11.04;67.10;99209.34;4219550;27;20423;-73
2022/05/01 09:28:46;;;;;;;13.57;6.65;;;;;;;11.01;66.24;99218.38;4219583;28;20047;-73
2022/05/01 09:30:46;;;;;;;8.63;6.00;;;;;;;10.96;65.95;99213.13;4220313;27;20442;-73
2022/05/01 09:32:48;;;;;;;10.23;6.72;;;;;;;10.99;66.10;99212.38;4220495;28;20035;-73
2022/05/01 09:34:50;;;;;;;8.65;6.40;;;;;;;11.02;65.44;99210.88;4220519;28;20071;-73
2022/05/01 09:36:51;;;;;;;10.10;6.07;;;;;;;11.01;66.10;99220.34;4220023;27;20379;-73
2022/05/01 09:39:02;;;;;;;13.75;7.72;;;;;;;11.04;66.13;99217.66;4220486;28;20071;-73
2022/05/01 09:41:14;;;;;;;10.50;6.75;;;;;;;10.91;66.75;99216.97;4220208;28;20075;-73